Wetterdaten vom Mittwoch, 22. August 2018

Temperatur Taupunkt Windchill Luftfeuchte Luftdruck Solarstrahlung Regen ET
(Verdunstung von Wasser)
Wind
Max 20.4 °C
00:00
15.4 °C
08:55
20.3 °C
00:00
85%
07:25
1019.1 hPa
00:45
316 W/m²
09:00
0 km/h
00:00 km/h
Durchschnitt 17 °C 13.2 °C 17 °C 78% 1018.4 hPa 124 W/m² 0 mm 0.33 mm 0 km/h
Min 14.5 °C
07:10
11.8 °C
07:10
14.5 °C
07:10
68%
00:00
1017.8 hPa
03:35
0 km/h (Böe)
00:00 km/h
Zeit
00:00 20.3 °C 14.2 °C 20.3 °C 68% 1019.0 hPa 0 W/m² 0.0 mm 0.000 mm 0.0 km/h
00:05 20.3 °C 14.2 °C 20.3 °C 68% 1019.0 hPa 0 W/m² 0.0 mm 0.000 mm 0.0 km/h
00:10 20.2 °C 14.1 °C 20.2 °C 68% 1018.9 hPa 0 W/m² 0.0 mm 0.000 mm 0.0 km/h
00:15 20.2 °C 14.1 °C 20.2 °C 68% 1018.9 hPa 0 W/m² 0.0 mm 0.000 mm 0.0 km/h
00:20 20.1 °C 14.2 °C 20.1 °C 69% 1018.7 hPa 0 W/m² 0.0 mm 0.000 mm 0.0 km/h
00:25 19.9 °C 14.0 °C 19.9 °C 69% 1018.8 hPa 0 W/m² 0.0 mm 0.000 mm 0.0 km/h
00:30 19.8 °C 13.9 °C 19.8 °C 69% 1018.7 hPa 0 W/m² 0.0 mm 0.000 mm 0.0 km/h
00:35 19.7 °C 13.8 °C 19.7 °C 69% 1018.8 hPa 0 W/m² 0.0 mm 0.000 mm 0.0 km/h
00:40 19.6 °C 14.0 °C 19.6 °C 70% 1019.0 hPa 0 W/m² 0.0 mm 0.000 mm 0.0 km/h
00:45 19.4 °C 13.8 °C 19.4 °C 70% 1019.1 hPa 0 W/m² 0.0 mm 0.000 mm 0.0 km/h
00:50 19.3 °C 13.7 °C 19.3 °C 70% 1018.8 hPa 0 W/m² 0.0 mm 0.000 mm 0.0 km/h
00:55 19.2 °C 13.6 °C 19.2 °C 70% 1019.1 hPa 0 W/m² 0.0 mm 0.000 mm 0.0 km/h
01:00 19.1 °C 13.7 °C 19.1 °C 71% 1019.0 hPa 0 W/m² 0.0 mm 0.025 mm 0.0 km/h
01:05 18.9 °C 13.7 °C 18.9 °C 72% 1018.9 hPa 0 W/m² 0.0 mm 0.000 mm 0.0 km/h
01:10 18.8 °C 13.6 °C 18.8 °C 72% 1018.9 hPa 0 W/m² 0.0 mm 0.000 mm 0.0 km/h
01:15 18.8 °C 13.9 °C 18.8 °C 73% 1018.8 hPa 0 W/m² 0.0 mm 0.000 mm 0.0 km/h
01:20 18.7 °C 13.8 °C 18.7 °C 73% 1018.6 hPa 0 W/m² 0.0 mm 0.000 mm 0.0 km/h
01:25 18.5 °C 13.6 °C 18.5 °C 73% 1018.8 hPa 0 W/m² 0.0 mm 0.000 mm 0.0 km/h
01:30 18.4 °C 13.5 °C 18.4 °C 73% 1018.5 hPa 0 W/m² 0.0 mm 0.000 mm 0.0 km/h
01:35 18.3 °C 13.6 °C 18.3 °C 74% 1018.8 hPa 0 W/m² 0.0 mm 0.000 mm 0.0 km/h
01:40 18.3 °C 13.6 °C 18.3 °C 74% 1018.9 hPa 0 W/m² 0.0 mm 0.000 mm 0.0 km/h
01:45 18.2 °C 13.5 °C 18.2 °C 74% 1019.0 hPa 0 W/m² 0.0 mm 0.000 mm 0.0 km/h
01:50 18.1 °C 13.4 °C 18.1 °C 74% 1018.9 hPa 0 W/m² 0.0 mm 0.000 mm 0.0 km/h
01:55 18.0 °C 13.5 °C 18.0 °C 75% 1018.8 hPa 0 W/m² 0.0 mm 0.000 mm 0.0 km/h
02:00 17.9 °C 13.4 °C 17.9 °C 75% 1018.9 hPa 0 W/m² 0.0 mm 0.026 mm 0.0 km/h
02:05 17.8 °C 13.5 °C 17.8 °C 76% 1018.6 hPa 0 W/m² 0.0 mm 0.000 mm 0.0 km/h
02:10 17.8 °C 13.5 °C 17.8 °C 76% 1018.6 hPa 0 W/m² 0.0 mm 0.000 mm 0.0 km/h
02:15 17.7 °C 13.6 °C 17.7 °C 77% 1018.7 hPa 0 W/m² 0.0 mm 0.000 mm 0.0 km/h
02:20 17.7 °C 13.6 °C 17.7 °C 77% 1018.6 hPa 0 W/m² 0.0 mm 0.000 mm 0.0 km/h
02:25 17.7 °C 13.6 °C 17.7 °C 77% 1018.6 hPa 0 W/m² 0.0 mm 0.000 mm 0.0 km/h
02:30 17.7 °C 13.6 °C 17.7 °C 77% 1018.7 hPa 0 W/m² 0.0 mm 0.000 mm 0.0 km/h
02:35 17.7 °C 13.6 °C 17.7 °C 77% 1018.5 hPa 0 W/m² 0.0 mm 0.000 mm 0.0 km/h
02:40 17.7 °C 13.6 °C 17.7 °C 77% 1018.6 hPa 0 W/m² 0.0 mm 0.000 mm 0.0 km/h
02:45 17.7 °C 13.6 °C 17.7 °C 77% 1018.3 hPa 0 W/m² 0.0 mm 0.000 mm 0.0 km/h
02:50 17.7 °C 13.6 °C 17.7 °C 77% 1018.3 hPa 0 W/m² 0.0 mm 0.000 mm 0.0 km/h
02:55 17.7 °C 13.6 °C 17.7 °C 77% 1018.2 hPa 0 W/m² 0.0 mm 0.000 mm 0.0 km/h
03:00 17.6 °C 13.5 °C 17.6 °C 77% 1018.1 hPa 0 W/m² 0.0 mm 0.025 mm 0.0 km/h
03:05 17.6 °C 13.5 °C 17.6 °C 77% 1018.1 hPa 0 W/m² 0.0 mm 0.000 mm 0.0 km/h
03:10 17.5 °C 13.6 °C 17.5 °C 78% 1018.0 hPa 0 W/m² 0.0 mm 0.000 mm 0.0 km/h
03:15 17.4 °C 13.5 °C 17.4 °C 78% 1018.3 hPa 0 W/m² 0.0 mm 0.000 mm 0.0 km/h
03:20 17.4 °C 13.5 °C 17.4 °C 78% 1018.2 hPa 0 W/m² 0.0 mm 0.000 mm 0.0 km/h
03:25 17.3 °C 13.4 °C 17.3 °C 78% 1018.0 hPa 0 W/m² 0.0 mm 0.000 mm 0.0 km/h
03:30 17.3 °C 13.4 °C 17.3 °C 78% 1018.0 hPa 0 W/m² 0.0 mm 0.000 mm 0.0 km/h
03:35 17.3 °C 13.4 °C 17.3 °C 78% 1017.8 hPa 0 W/m² 0.0 mm 0.000 mm 0.0 km/h
03:40 17.3 °C 13.4 °C 17.3 °C 78% 1018.0 hPa 0 W/m² 0.0 mm 0.000 mm 0.0 km/h
03:45 17.2 °C 13.3 °C 17.2 °C 78% 1018.1 hPa 0 W/m² 0.0 mm 0.000 mm 0.0 km/h
03:50 17.2 °C 13.5 °C 17.2 °C 79% 1018.0 hPa 0 W/m² 0.0 mm 0.000 mm 0.0 km/h
03:55 17.1 °C 13.4 °C 17.1 °C 79% 1018.2 hPa 0 W/m² 0.0 mm 0.000 mm 0.0 km/h
04:00 16.9 °C 13.2 °C 16.9 °C 79% 1018.2 hPa 0 W/m² 0.0 mm 0.026 mm 0.0 km/h
04:05 16.9 °C 13.4 °C 16.9 °C 80% 1017.8 hPa 0 W/m² 0.0 mm 0.000 mm 0.0 km/h
04:10 16.8 °C 13.3 °C 16.8 °C 80% 1018.0 hPa 0 W/m² 0.0 mm 0.000 mm 0.0 km/h
04:15 16.8 °C 13.3 °C 16.8 °C 80% 1018.1 hPa 0 W/m² 0.0 mm 0.000 mm 0.0 km/h
04:20 16.7 °C 13.2 °C 16.7 °C 80% 1018.1 hPa 0 W/m² 0.0 mm 0.000 mm 0.0 km/h
04:25 16.7 °C 13.2 °C 16.7 °C 80% 1018.2 hPa 0 W/m² 0.0 mm 0.000 mm 0.0 km/h
04:30 16.6 °C 12.9 °C 16.6 °C 79% 1018.1 hPa 0 W/m² 0.0 mm 0.000 mm 0.0 km/h
04:35 16.4 °C 12.9 °C 16.4 °C 80% 1017.9 hPa 0 W/m² 0.0 mm 0.000 mm 0.0 km/h
04:40 16.3 °C 12.8 °C 16.3 °C 80% 1018.1 hPa 0 W/m² 0.0 mm 0.000 mm 0.0 km/h
04:45 16.2 °C 12.9 °C 16.2 °C 81% 1018.2 hPa 0 W/m² 0.0 mm 0.000 mm 0.0 km/h
04:50 16.2 °C 12.7 °C 16.2 °C 80% 1018.0 hPa 0 W/m² 0.0 mm 0.000 mm 0.0 km/h
04:55 16.1 °C 12.6 °C 16.1 °C 80% 1018.1 hPa 0 W/m² 0.0 mm 0.000 mm 0.0 km/h
05:00 16.0 °C 12.5 °C 16.0 °C 80% 1018.1 hPa 0 W/m² 0.0 mm 0.025 mm 0.0 km/h
05:05 16.0 °C 12.5 °C 16.0 °C 80% 1018.2 hPa 0 W/m² 0.0 mm 0.000 mm 0.0 km/h
05:10 15.9 °C 12.5 °C 15.9 °C 80% 1017.8 hPa 0 W/m² 0.0 mm 0.000 mm 0.0 km/h
05:15 15.8 °C 12.4 °C 15.8 °C 80% 1018.0 hPa 0 W/m² 0.0 mm 0.000 mm 0.0 km/h
05:20 15.8 °C 12.4 °C 15.8 °C 80% 1018.0 hPa 0 W/m² 0.0 mm 0.000 mm 0.0 km/h
05:25 15.8 °C 12.5 °C 15.8 °C 81% 1018.6 hPa 0 W/m² 0.0 mm 0.000 mm 0.0 km/h
05:30 15.7 °C 12.4 °C 15.7 °C 81% 1018.2 hPa 0 W/m² 0.0 mm 0.000 mm 0.0 km/h
05:35 15.6 °C 12.3 °C 15.6 °C 81% 1018.4 hPa 0 W/m² 0.0 mm 0.000 mm 0.0 km/h
05:40 15.6 °C 12.3 °C 15.6 °C 81% 1018.2 hPa 0 W/m² 0.0 mm 0.000 mm 0.0 km/h
05:45 15.4 °C 12.2 °C 15.4 °C 81% 1018.4 hPa 0 W/m² 0.0 mm 0.000 mm 0.0 km/h
05:50 15.3 °C 12.2 °C 15.3 °C 82% 1018.5 hPa 0 W/m² 0.0 mm 0.000 mm 0.0 km/h
05:55 15.3 °C 12.2 °C 15.3 °C 82% 1018.3 hPa 0 W/m² 0.0 mm 0.000 mm 0.0 km/h
06:00 15.3 °C 12.2 °C 15.3 °C 82% 1018.0 hPa 0 W/m² 0.0 mm 0.025 mm 0.0 km/h
06:05 15.2 °C 12.3 °C 15.2 °C 83% 1018.1 hPa 0 W/m² 0.0 mm 0.000 mm 0.0 km/h
06:10 15.2 °C 12.1 °C 15.2 °C 82% 1018.2 hPa 0 W/m² 0.0 mm 0.000 mm 0.0 km/h
06:15 15.2 °C 12.1 °C 15.2 °C 82% 1017.9 hPa 0 W/m² 0.0 mm 0.000 mm 0.0 km/h
06:20 15.1 °C 12.0 °C 15.1 °C 82% 1017.9 hPa 0 W/m² 0.0 mm 0.000 mm 0.0 km/h
06:25 15.0 °C 12.1 °C 15.0 °C 83% 1017.8 hPa 1 W/m² 0.0 mm 0.000 mm 0.0 km/h
06:30 15.0 °C 12.1 °C 15.0 °C 83% 1018.0 hPa 5 W/m² 0.0 mm 0.000 mm 0.0 km/h
06:35 14.9 °C 12.0 °C 14.9 °C 83% 1018.0 hPa 7 W/m² 0.0 mm 0.000 mm 0.0 km/h
06:40 14.8 °C 11.9 °C 14.8 °C 83% 1018.1 hPa 10 W/m² 0.0 mm 0.000 mm 0.0 km/h
06:45 14.7 °C 11.8 °C 14.7 °C 83% 1018.0 hPa 12 W/m² 0.0 mm 0.000 mm 0.0 km/h
06:50 14.7 °C 12.0 °C 14.7 °C 84% 1017.8 hPa 16 W/m² 0.0 mm 0.000 mm 0.0 km/h
06:55 14.7 °C 12.0 °C 14.7 °C 84% 1017.9 hPa 19 W/m² 0.0 mm 0.000 mm 0.0 km/h
07:00 14.6 °C 11.9 °C 14.6 °C 84% 1018.2 hPa 24 W/m² 0.0 mm 0.000 mm 0.0 km/h
07:05 14.6 °C 11.9 °C 14.6 °C 84% 1018.3 hPa 27 W/m² 0.0 mm 0.000 mm 0.0 km/h
07:10 14.5 °C 11.8 °C 14.5 °C 84% 1018.3 hPa 33 W/m² 0.0 mm 0.000 mm 0.0 km/h
07:15 14.5 °C 11.8 °C 14.5 °C 84% 1018.3 hPa 35 W/m² 0.0 mm 0.000 mm 0.0 km/h
07:20 14.6 °C 11.9 °C 14.6 °C 84% 1018.3 hPa 39 W/m² 0.0 mm 0.000 mm 0.0 km/h
07:25 14.6 °C 12.1 °C 14.6 °C 85% 1018.2 hPa 43 W/m² 0.0 mm 0.000 mm 0.0 km/h
07:30 14.6 °C 11.9 °C 14.6 °C 84% 1018.2 hPa 65 W/m² 0.0 mm 0.000 mm 0.0 km/h
07:35 14.7 °C 12.2 °C 14.7 °C 85% 1018.4 hPa 79 W/m² 0.0 mm 0.000 mm 0.0 km/h
07:40 14.8 °C 12.3 °C 14.8 °C 85% 1018.2 hPa 87 W/m² 0.0 mm 0.000 mm 0.0 km/h
07:45 15.0 °C 12.5 °C 15.0 °C 85% 1018.4 hPa 112 W/m² 0.0 mm 0.000 mm 0.0 km/h
07:50 15.2 °C 12.7 °C 15.2 °C 85% 1018.4 hPa 133 W/m² 0.0 mm 0.000 mm 0.0 km/h
07:55 15.5 °C 13.0 °C 15.5 °C 85% 1018.4 hPa 159 W/m² 0.0 mm 0.000 mm 0.0 km/h
08:00 15.8 °C 13.1 °C 15.8 °C 84% 1018.4 hPa 195 W/m² 0.0 mm 0.051 mm 0.0 km/h
08:05 16.2 °C 13.5 °C 16.2 °C 84% 1018.4 hPa 190 W/m² 0.0 mm 0.000 mm 0.0 km/h
08:10 16.4 °C 13.5 °C 16.4 °C 83% 1018.4 hPa 144 W/m² 0.0 mm 0.000 mm 0.0 km/h
08:15 16.8 °C 13.7 °C 16.8 °C 82% 1018.4 hPa 127 W/m² 0.0 mm 0.000 mm 0.0 km/h
08:20 17.1 °C 14.0 °C 17.1 °C 82% 1018.3 hPa 212 W/m² 0.0 mm 0.000 mm 0.0 km/h
08:25 17.4 °C 14.1 °C 17.4 °C 81% 1018.4 hPa 228 W/m² 0.0 mm 0.000 mm 0.0 km/h
08:30 17.8 °C 14.5 °C 17.8 °C 81% 1018.3 hPa 241 W/m² 0.0 mm 0.000 mm 0.0 km/h
08:35 18.2 °C 14.7 °C 18.2 °C 80% 1018.4 hPa 254 W/m² 0.0 mm 0.000 mm 0.0 km/h
08:40 18.7 °C 15.0 °C 18.7 °C 79% 1018.4 hPa 271 W/m² 0.0 mm 0.000 mm 0.0 km/h
08:45 19.1 °C 15.0 °C 19.1 °C 77% 1018.3 hPa 284 W/m² 0.0 mm 0.000 mm 0.0 km/h
08:50 19.4 °C 15.1 °C 19.4 °C 76% 1018.4 hPa 293 W/m² 0.0 mm 0.000 mm 0.0 km/h
08:55 19.8 °C 15.4 °C 19.8 °C 76% 1018.3 hPa 303 W/m² 0.0 mm 0.000 mm 0.0 km/h
09:00 20.2 °C 15.4 °C 20.2 °C 74% 1018.3 hPa 316 W/m² 0.0 mm 0.127 mm 0.0 km/h